createdAt,value
2023-10-29T00:04:48.730Z,63.83
2023-10-29T00:14:52.645Z,63.17
2023-10-29T00:24:54.906Z,69.45
2023-10-29T00:34:57.800Z,54.67
2023-10-29T00:44:59.605Z,106.85
2023-10-29T00:55:01.624Z,68.35
2023-10-29T01:05:06.596Z,51.38
2023-10-29T01:15:08.634Z,43.85
2023-10-29T01:25:10.911Z,43.72
2023-10-29T01:35:12.867Z,38.78
2023-10-29T01:45:18.277Z,32.03
2023-10-29T01:55:21.327Z,36.78
2023-10-29T02:05:23.189Z,39.63
2023-10-29T02:15:24.947Z,34.05
2023-10-29T02:25:26.695Z,35.85
2023-10-29T02:35:28.460Z,33.15
2023-10-29T02:45:37.557Z,36.97
2023-10-29T02:55:39.181Z,32.55
2023-10-29T03:15:46.322Z,30.27
2023-10-29T03:25:48.293Z,33.57
2023-10-29T03:35:51.134Z,30.00
2023-10-29T03:45:53.974Z,29.43
2023-10-29T03:55:59.595Z,30.20
2023-10-29T04:06:01.262Z,29.10
2023-10-29T04:16:03.105Z,31.92
2023-10-29T04:26:04.994Z,33.90
2023-10-29T04:36:07.598Z,35.60
2023-10-29T04:46:12.029Z,32.43
2023-10-29T04:56:13.821Z,31.08
2023-10-29T05:06:22.721Z,29.73
2023-10-29T05:16:24.624Z,27.85
2023-10-29T05:26:26.629Z,29.23
2023-10-29T05:36:29.385Z,31.05
2023-10-29T05:46:31.089Z,33.50
2023-10-29T05:56:33.696Z,32.35
2023-10-29T06:06:35.431Z,28.57
2023-10-29T06:16:38.474Z,31.83
2023-10-29T06:26:41.978Z,31.13
2023-10-29T06:36:54.941Z,31.73
2023-10-29T06:46:57.724Z,36.47
2023-10-29T06:57:00.570Z,33.97
2023-10-29T07:07:03.516Z,31.73
2023-10-29T07:17:05.748Z,37.35
2023-10-29T07:27:07.385Z,28.35
2023-10-29T07:37:12.030Z,39.53
2023-10-29T07:47:13.867Z,41.72
2023-10-29T07:57:16.610Z,34.95
2023-10-29T08:07:19.351Z,23.92
2023-10-29T08:17:22.286Z,21.02
2023-10-29T08:27:24.850Z,13.90
2023-10-29T08:37:26.687Z,10.27
2023-10-29T08:47:28.552Z,8.00
2023-10-29T08:57:30.223Z,10.27
2023-10-29T09:07:32.120Z,10.05
2023-10-29T09:17:33.962Z,5.30
2023-10-29T09:27:35.731Z,4.03
2023-10-29T09:37:37.429Z,6.85
2023-10-29T09:47:39.861Z,8.05
2023-10-29T09:57:42.810Z,6.47
2023-10-29T10:07:44.491Z,5.82
2023-10-29T10:18:05.815Z,5.68
2023-10-29T10:28:09.945Z,3.30
2023-10-29T10:38:12.198Z,3.85
2023-10-29T10:48:13.991Z,7.28
2023-10-29T10:58:19.341Z,4.13
2023-10-29T11:08:22.539Z,4.47
2023-10-29T11:18:36.151Z,3.38
2023-10-29T11:28:37.811Z,3.95
2023-10-29T11:38:40.556Z,2.58
2023-10-29T11:49:04.881Z,1.27
2023-10-29T11:59:06.972Z,4.55
2023-10-29T12:09:23.861Z,2.72
2023-10-29T12:19:41.589Z,0.93
2023-10-29T12:29:43.473Z,1.77
2023-10-29T12:39:46.482Z,4.38
2023-10-29T12:50:04.683Z,1.23
2023-10-29T13:00:07.643Z,4.97
2023-10-29T13:10:14.136Z,2.50
2023-10-29T13:20:16.345Z,1.30
2023-10-29T13:30:18.271Z,4.03
2023-10-29T13:40:20.253Z,2.65
2023-10-29T13:50:22.001Z,2.17
2023-10-29T14:00:27.053Z,4.75
2023-10-29T14:10:28.886Z,3.33
2023-10-29T14:20:31.252Z,2.08
2023-10-29T14:30:34.897Z,4.75
2023-10-29T14:40:40.276Z,3.28
2023-10-29T14:50:43.402Z,2.80
2023-10-29T15:00:46.257Z,7.25
2023-10-29T15:10:52.153Z,5.95
2023-10-29T15:21:01.020Z,6.55
2023-10-29T15:31:10.639Z,2.95
2023-10-29T15:41:14.701Z,5.53
2023-10-29T15:51:17.021Z,9.43
2023-10-29T16:01:20.477Z,5.60
2023-10-29T16:11:24.387Z,6.00
2023-10-29T16:21:27.067Z,4.85
2023-10-29T16:31:31.817Z,5.13
2023-10-29T16:41:34.240Z,32.67
2023-10-29T16:51:37.018Z,5.75
2023-10-29T17:01:40.181Z,6.35
2023-10-29T17:11:43.830Z,4.03
2023-10-29T17:21:50.632Z,4.43
2023-10-29T17:31:54.952Z,4.68
2023-10-29T17:41:58.200Z,13.15
2023-10-29T17:52:02.167Z,9.13
2023-10-29T18:02:04.881Z,4.25
2023-10-29T18:12:08.293Z,5.28
2023-10-29T18:22:11.577Z,5.28
2023-10-29T18:32:14.233Z,3.58
2023-10-29T18:42:17.147Z,4.30
2023-10-29T18:52:20.274Z,3.85
2023-10-29T19:02:23.002Z,6.80
2023-10-29T19:12:26.101Z,4.50
2023-10-29T19:22:31.757Z,5.32
2023-10-29T19:32:36.916Z,6.93
2023-10-29T19:42:41.810Z,4.13
2023-10-29T19:52:53.451Z,5.93
2023-10-29T20:02:58.715Z,4.20
2023-10-29T20:13:01.890Z,5.32
2023-10-29T20:23:05.757Z,4.03
2023-10-29T20:33:09.789Z,5.63
2023-10-29T20:43:12.178Z,6.80
2023-10-29T20:53:15.486Z,5.40
2023-10-29T21:03:17.686Z,2.78
2023-10-29T21:23:28.948Z,7.53
2023-10-29T21:33:30.837Z,2.33
2023-10-29T21:43:35.591Z,3.73
2023-10-29T21:53:39.594Z,4.18
2023-10-29T22:03:41.445Z,3.70
2023-10-29T22:13:43.262Z,4.47
2023-10-29T22:23:46.686Z,4.63
2023-10-29T22:33:49.269Z,6.00
2023-10-29T22:43:51.005Z,6.70
2023-10-29T22:53:52.681Z,12.27
2023-10-29T23:03:54.524Z,8.33
2023-10-29T23:13:56.342Z,8.17
2023-10-29T23:23:59.042Z,5.47
2023-10-29T23:34:00.846Z,5.65
2023-10-29T23:44:08.992Z,3.40
2023-10-29T23:54:11.015Z,4.30
